Latest Weather Observations for Pound Creek

IDV60801

Issued at 1:22 am EDT Friday 21 January 2022 (issued every 10 minutes, with the page automatically refreshed every 10 minutes)

About weather observations | Map of weather stations | Latest weather observations for VIC | Other Formats
Station Details ID: 085099 Name: POUND CREEK Lat: -38.63 Lon: 145.81 Height: 3.0 m
Data from the previous 72 hours. | See also: Recent months at Pound Creek
Date/Time
EDT
Temp
°C
App
Temp
°C
Dew
Point
°C
Rel
Hum
%
Delta-T
°C
Wind Press
QNH
hPa
Press
MSL
hPa
Rain since
9am
mm
Dir  Spd
km/h
Gust
km/h
Spd
kts
Gust
kts
21/01:00am 14.8 13.2 12.8 88 1.1 ENE 13 19 7 10 1027.4 1027.4 0.0
21/12:30am 14.6 13.4 12.8 89 1.0 E 11 17 6 9 1027.6 1027.6 0.0
21/12:00am 14.7 13.4 12.6 87 1.1 ENE 11 15 6 8 1027.8 1027.8 0.0
 
Date/Time
EDT
Temp
°C
App
Temp
°C
Dew
Point
°C
Rel
Hum
%
Delta-T
°C
Wind Press
QNH
hPa
Press
MSL
hPa
Rain since
9am
mm
Dir  Spd
km/h
Gust
km/h
Spd
kts
Gust
kts
20/11:30pm 15.6 13.5 12.5 82 1.7 E 15 22 8 12 1027.9 1027.9 0.0
20/11:00pm 16.0 13.6 12.6 80 1.9 E 17 24 9 13 1027.7 1027.7 0.0
20/10:30pm 16.2 14.2 12.6 79 2.0 ENE 15 20 8 11 1027.8 1027.8 0.0
20/10:00pm 16.8 13.8 12.7 77 2.3 E 20 30 11 16 1027.9 1027.9 0.0
20/09:30pm 17.3 13.3 13.0 76 2.4 E 26 37 14 20 1027.6 1027.6 0.0
20/09:00pm 17.8 13.8 13.1 74 2.6 E 26 37 14 20 1027.3 1027.3 0.0
20/08:30pm 18.6 14.1 12.6 68 3.4 E 28 39 15 21 1027.0 1027.0 0.0
20/08:00pm 19.7 15.4 12.2 62 4.2 E 26 39 14 21 1026.8 1026.8 0.0
20/07:30pm 20.8 16.2 12.2 58 4.8 E 28 39 15 21 1026.8 1026.8 0.0
20/07:00pm 21.7 17.2 12.5 56 5.2 E 28 39 15 21 1026.5 1026.5 0.0
20/06:30pm 20.9 15.4 12.6 59 4.7 ESE 33 46 18 25 1026.4 1026.4 0.0
20/06:00pm 22.8 17.3 12.4 52 5.9 ESE 33 46 18 25 1026.3 1026.3 0.0
20/05:30pm 23.9 18.6 12.5 49 6.5 E 32 43 17 23 1026.4 1026.4 0.0
20/05:00pm 23.8 17.8 13.4 52 6.0 ESE 37 48 20 26 1026.4 1026.4 0.0
20/04:30pm 24.0 18.5 13.5 51 6.1 ESE 35 52 19 28 1026.9 1026.9 0.0
20/04:16pm 24.5 19.1 12.8 48 6.7 ESE 33 54 18 29 1026.9 1026.9 0.0
20/04:00pm 25.7 20.3 12.9 45 7.4 ESE 33 46 18 25 1027.0 1027.0 0.0
20/03:30pm 25.4 20.8 12.3 44 7.5 ESE 28 43 15 23 1027.4 1027.4 0.0
20/03:00pm 25.5 20.9 12.4 44 7.5 E 28 43 15 23 1027.5 1027.5 0.0
20/02:30pm 25.8 21.2 12.3 43 7.8 E 28 39 15 21 1027.7 1027.7 0.0
20/02:00pm 25.9 21.8 11.3 40 8.2 E 24 35 13 19 1027.9 1027.9 0.0
20/01:30pm 25.9 21.8 11.6 40 8.1 E 24 35 13 19 1028.2 1028.2 0.0
20/01:00pm 25.0 20.3 10.8 41 7.9 ENE 26 35 14 19 1028.5 1028.5 0.0
20/12:30pm 24.2 19.8 10.5 42 7.6 ENE 24 35 13 19 1028.6 1028.6 0.0
20/12:00pm 24.2 19.7 11.5 45 7.1 E 26 35 14 19 1028.9 1028.9 0.0
20/11:30am 23.3 18.3 11.0 46 6.8 E 28 39 15 21 1029.0 1029.0 0.0
20/11:00am 22.9 18.1 11.6 49 6.3 E 28 37 15 20 1029.2 1029.2 0.0
20/10:30am 22.6 17.8 11.7 50 6.1 E 28 43 15 23 1029.5 1029.5 0.0
20/10:00am 21.6 17.5 11.3 52 5.7 ENE 24 37 13 20 1029.4 1029.4 0.0
20/09:30am 20.8 15.7 10.6 52 5.6 ENE 28 37 15 20 1029.4 1029.4 0.0
20/09:10am 20.3 15.1 10.4 53 5.4 E 28 46 15 25 1029.3 1029.3 0.0
20/09:00am 20.2 15.1 10.6 54 5.2 E 28 41 15 22 1029.2 1029.2 0.0
20/08:30am 19.3 15.1 11.1 59 4.5 E 24 39 13 21 1029.0 1029.0 0.0
20/08:00am 18.2 14.9 11.5 65 3.6 E 20 33 11 18 1029.2 1029.2 0.0
20/07:30am 17.2 13.9 11.5 69 3.1 E 20 32 11 17 1029.0 1029.0 0.0
20/07:00am 16.0 13.3 11.6 75 2.4 E 17 24 9 13 1029.2 1029.2 0.0
20/06:30am 15.2 12.4 11.4 78 2.0 E 17 26 9 14 1029.0 1029.0 0.0
20/06:00am 14.9 12.5 11.5 80 1.8 E 15 20 8 11 1029.0 1029.0 0.0
20/05:30am 15.1 12.4 11.7 80 1.8 E 17 26 9 14 1028.6 1028.6 0.0
20/05:00am 15.2 12.2 11.8 80 1.8 E 19 30 10 16 1028.5 1028.5 0.0
20/04:30am 15.4 12.2 11.8 79 1.9 E 20 33 11 18 1028.2 1028.2 0.0
20/04:00am 15.1 12.2 11.1 77 2.1 E 17 24 9 13 1028.2 1028.2 0.0
20/03:30am 14.8 12.0 11.2 79 1.9 E 17 22 9 12 1028.3 1028.3 0.0
20/03:00am 15.0 12.2 11.4 79 1.9 E 17 24 9 13 1028.5 1028.5 0.0
20/02:30am 15.5 12.4 11.7 78 2.1 E 19 26 10 14 1028.7 1028.7 0.0
20/02:00am 16.0 12.7 11.6 75 2.4 E 20 30 11 16 1028.9 1028.9 0.0
20/01:30am 16.7 12.7 11.8 73 2.7 ESE 24 32 13 17 1029.1 1029.1 0.0
20/01:00am 16.8 12.9 12.1 74 2.6 E 24 33 13 18 1029.0 1029.0 0.0
20/12:30am 17.0 13.3 12.7 76 2.4 E 24 33 13 18 1029.0 1029.0 0.0
20/12:00am 16.4 13.1 12.8 79 2.0 E 22 32 12 17 1028.8 1028.8 0.0
 
Date/Time
EDT
Temp
°C
App
Temp
°C
Dew
Point
°C
Rel
Hum
%
Delta-T
°C
Wind Press
QNH
hPa
Press
MSL
hPa
Rain since
9am
mm
Dir  Spd
km/h
Gust
km/h
Spd
kts
Gust
kts
19/11:30pm 16.3 13.3 12.7 79 2.0 E 20 30 11 16 1028.9 1028.9 0.0
19/11:00pm 16.5 12.8 12.8 79 2.0 E 24 37 13 20 1028.6 1028.6 0.0
19/10:30pm 16.6 13.4 13.1 80 2.0 E 22 32 12 17 1028.3 1028.3 0.0
19/10:00pm 17.1 13.2 13.2 78 2.2 E 26 39 14 21 1027.9 1027.9 0.0
19/09:30pm 17.4 13.8 12.9 75 2.5 E 24 37 13 20 1027.7 1027.7 0.0
19/09:00pm 17.4 13.2 12.5 73 2.7 E 26 35 14 19 1027.2 1027.2 0.0
19/08:30pm 18.1 13.4 11.9 67 3.4 E 28 41 15 22 1027.0 1027.0 0.0
19/08:00pm 18.6 13.9 12.1 66 3.6 E 28 43 15 23 1026.8 1026.8 0.0
19/07:30pm 19.6 14.3 12.6 64 3.9 E 32 43 17 23 1026.4 1026.4 0.0
19/07:14pm 19.7 13.8 12.5 63 4.0 E 35 57 19 31 1025.9 1025.9 0.0
19/07:00pm 20.2 14.5 11.9 59 4.6 E 33 46 18 25 1025.8 1025.8 0.0
19/06:35pm 20.8 15.9 12.5 59 4.7 E 30 48 16 26 1025.4 1025.4 0.0
19/06:30pm 21.0 15.6 12.2 57 4.9 E 32 44 17 24 1025.4 1025.4 0.0
19/06:00pm 21.5 15.8 11.2 52 5.7 E 32 44 17 24 1025.3 1025.3 0.0
19/05:30pm 21.4 15.8 11.4 53 5.5 E 32 48 17 26 1025.3 1025.3 0.0
19/05:00pm 21.7 15.9 11.4 52 5.7 E 33 50 18 27 1025.5 1025.5 0.0
19/04:35pm 22.3 16.0 11.1 49 6.2 E 35 54 19 29 1025.4 1025.4 0.0
19/04:30pm 22.2 15.8 10.7 48 6.3 ESE 35 52 19 28 1025.5 1025.5 0.0
19/04:10pm 22.0 15.7 11.1 50 6.0 ESE 35 54 19 29 1025.6 1025.6 0.0
19/04:00pm 22.1 15.5 11.2 50 6.0 E 37 52 20 28 1025.6 1025.6 0.0
19/03:30pm 22.2 15.2 11.3 50 6.1 ESE 39 52 21 28 1025.6 1025.6 0.0
19/03:14pm 22.5 16.1 10.6 47 6.5 E 35 56 19 30 1025.7 1025.7 0.0
19/03:00pm 22.6 15.8 10.7 47 6.5 ESE 37 54 20 29 1025.9 1025.9 0.0
19/02:42pm 22.4 15.8 9.9 45 6.8 ESE 35 54 19 29 1025.7 1025.7 0.0
19/02:30pm 22.5 15.9 11.3 49 6.2 ESE 37 50 20 27 1025.6 1025.6 0.0
19/02:09pm 22.9 16.7 11.3 48 6.5 ESE 35 56 19 30 1025.4 1025.4 0.0
19/02:00pm 23.3 16.1 10.7 45 6.9 ESE 39 52 21 28 1025.4 1025.4 0.0
19/01:30pm 24.1 17.8 11.1 44 7.3 ESE 35 48 19 26 1025.3 1025.3 0.0
19/01:00pm 24.2 18.0 11.5 45 7.1 E 35 48 19 26 1025.3 1025.3 0.0
19/12:30pm 23.0 16.8 11.4 48 6.5 E 35 56 19 30 1025.3 1025.3 0.0
19/12:27pm 23.5 17.1 10.6 44 7.1 ESE 35 56 19 30 1025.3 1025.3 0.0
19/12:00pm 22.9 16.7 12.5 52 5.9 ESE 37 50 20 27 1025.1 1025.1 0.0
19/11:30am 22.5 17.6 13.8 58 5.1 E 32 44 17 24 1025.0 1025.0 0.0
19/11:19am 22.6 17.7 14.2 59 4.9 E 33 52 18 28 1025.0 1025.0 0.0
19/11:00am 21.9 16.1 12.7 56 5.2 E 35 48 19 26 1024.9 1024.9 0.0
19/10:30am 21.8 16.5 13.2 58 4.9 E 33 46 18 25 1024.9 1024.9 0.0
19/10:00am 20.5 15.9 13.5 64 4.0 ESE 30 46 16 25 1024.8 1024.8 0.0
19/09:30am 20.9 15.6 14.1 65 3.9 ESE 35 46 19 25 1024.6 1024.6 0.0
19/09:00am 20.5 16.1 13.0 62 4.2 E 28 43 15 23 1024.2 1024.2 0.0
19/08:30am 19.6 15.2 14.0 70 3.2 E 30 43 16 23 1023.7 1023.7 0.0
19/08:00am 18.9 15.8 14.6 76 2.5 E 24 35 13 19 1023.2 1023.2 0.0
19/07:30am 18.1 14.8 15.0 82 1.8 ESE 26 33 14 18 1022.5 1022.5 0.0
19/07:00am 17.3 14.0 14.9 86 1.4 E 26 39 14 21 1022.0 1022.0 0.0
19/06:30am 16.6 14.5 15.3 92 0.8 ESE 20 30 11 16 1021.5 1021.5 0.0
19/06:00am 16.6 14.5 15.3 92 0.8 E 20 30 11 16 1021.2 1021.2 0.0
19/05:30am 16.6 14.7 15.3 92 0.8 E 19 26 10 14 1020.9 1020.9 0.0
19/05:00am 16.9 14.5 15.4 91 0.9 ESE 22 33 12 18 1020.5 1020.5 0.0
19/04:30am 16.7 15.4 15.9 95 0.5 ESE 17 26 9 14 1020.3 1020.3 0.0
19/04:00am 15.9 14.6 15.9 100 0.0 ESE 17 22 9 12 1020.0 1020.0 0.0
19/03:30am 15.4 13.9 15.4 100 0.0 ESE 17 24 9 13 1019.6 1019.6 0.0
19/03:00am 10.6 10.8 10.6 100 0.0 CALM 0 0 0 0 1019.5 1019.5 0.0
19/02:30am 11.2 10.8 11.2 100 0.0 N 4 6 2 3 1019.5 1019.5 0.0
19/02:00am 10.8 10.7 10.8 100 0.0 E 2 4 1 2 1019.7 1019.7 0.0
19/01:30am 10.3 10.4 10.3 100 0.0 CALM 0 0 0 0 1019.8 1019.8 0.0
19/01:00am 10.4 10.6 10.4 100 0.0 CALM 0 0 0 0 1019.9 1019.9 0.0
19/12:30am 10.2 10.3 10.2 100 0.0 CALM 0 0 0 0 1019.8 1019.8 0.0
19/12:00am 10.8 11.1 10.8 100 0.0 CALM 0 0 0 0 1019.6 1019.6 0.0
 
Date/Time
EDT
Temp
°C
App
Temp
°C
Dew
Point
°C
Rel
Hum
%
Delta-T
°C
Wind Press
QNH
hPa
Press
MSL
hPa
Rain since
9am
mm
Dir  Spd
km/h
Gust
km/h
Spd
kts
Gust
kts
18/11:30pm 11.2 11.6 11.2 100 0.0 CALM 0 0 0 0 1019.6 1019.6 0.0
18/11:00pm 11.9 12.5 11.9 100 0.0 CALM 0 2 0 1 1019.6 1019.6 0.0
18/10:30pm 13.4 14.0 13.2 99 0.1 E 2 4 1 2 1019.4 1019.4 0.0
18/10:00pm 14.1 15.1 13.3 95 0.4 CALM 0 0 0 0 1019.2 1019.2 0.0
18/09:30pm 15.3 15.6 13.3 88 1.1 SSE 4 6 2 3 1019.0 1019.0 0.0
18/09:00pm 15.9 15.7 13.6 86 1.3 S 7 9 4 5 1018.7 1018.7 0.0
18/08:30pm 16.1 15.6 12.8 81 1.8 S 7 13 4 7 1018.4 1018.4 0.0
18/08:00pm 17.5 16.3 12.8 74 2.6 S 11 17 6 9 1017.9 1017.9 0.0
18/07:30pm 18.2 16.4 12.0 67 3.4 S 13 17 7 9 1017.4 1017.4 0.0
18/07:00pm 18.5 16.2 11.6 64 3.8 S 15 24 8 13 1017.5 1017.5 0.0
18/06:30pm 18.8 16.4 10.1 57 4.6 S 13 20 7 11 1017.1 1017.1 0.0
18/06:00pm 19.4 16.0 10.7 57 4.7 SSW 19 22 10 12 1017.1 1017.1 0.0
18/05:30pm 19.7 16.6 11.5 59 4.5 S 19 30 10 16 1017.0 1017.0 0.0
18/05:00pm 18.7 15.7 12.0 65 3.7 S 19 26 10 14 1017.3 1017.3 0.0
18/04:30pm 19.4 16.3 11.7 61 4.2 S 19 28 10 15 1017.1 1017.1 0.0
18/04:00pm 19.0 15.8 11.8 63 4.0 S 20 30 11 16 1017.2 1017.2 0.0
18/03:30pm 20.7 17.4 11.6 56 5.0 SSW 20 28 11 15 1017.3 1017.3 0.0
18/03:00pm 19.3 16.5 13.3 68 3.4 SSW 20 30 11 16 1017.2 1017.2 0.0
18/02:30pm 20.0 17.0 12.5 62 4.2 SSW 20 32 11 17 1017.2 1017.2 0.0
18/02:00pm 20.7 18.4 12.9 61 4.4 SSW 17 26 9 14 1017.3 1017.3 0.0
18/01:30pm 20.8 17.6 11.4 55 5.2 SSW 19 26 10 14 1017.3 1017.3 0.0
18/01:00pm 19.7 16.9 11.2 58 4.6 SSW 17 26 9 14 1017.4 1017.4 0.0
18/12:30pm 19.6 16.9 11.6 60 4.4 SW 17 24 9 13 1017.5 1017.5 0.0
18/12:00pm 19.3 16.7 10.8 58 4.6 SSW 15 22 8 12 1017.4 1017.4 0.0
18/11:30am 18.1 14.1 10.5 61 4.1 SSW 22 30 12 16 1017.4 1017.4 0.0
18/11:00am 18.6 16.0 13.7 73 2.8 SSW 20 28 11 15 1017.4 1017.4 0.0
18/10:30am 19.3 17.6 10.0 55 5.0 SSW 9 17 5 9 1016.9 1016.9 0.0
18/10:00am 17.8 15.1 10.2 61 4.0 SSW 15 20 8 11 1016.9 1016.9 0.0
18/09:30am 17.6 15.5 11.2 66 3.5 SW 13 19 7 10 1016.9 1016.9 0.0
18/09:00am 17.3 14.1 10.0 62 3.8 SSW 17 22 9 12 1016.6 1016.6 0.0
18/08:30am 17.1 14.7 11.4 69 3.1 SSW 15 22 8 12 1016.5 1016.5 0.0
18/08:00am 17.3 15.1 12.2 72 2.8 SW 15 22 8 12 1016.2 1016.2 0.0
18/07:30am 17.5 15.0 9.7 60 4.1 SW 13 17 7 9 1015.6 1015.6 0.0
18/07:00am 16.4 14.1 10.3 67 3.2 SW 13 19 7 10 1015.6 1015.6 0.0
18/06:30am 16.2 13.2 9.4 64 3.5 SSW 15 20 8 11 1015.3 1015.3 0.0
18/06:00am 16.1 14.2 10.4 69 3.0 SW 11 17 6 9 1014.9 1014.9 0.0
18/05:30am 16.0 14.1 9.2 64 3.5 SW 9 13 5 7 1014.8 1014.8 0.0
18/05:00am 16.0 13.8 9.4 65 3.4 SW 11 15 6 8 1014.6 1014.6 0.0
18/04:30am 15.9 13.7 9.3 65 3.4 SW 11 15 6 8 1014.4 1014.4 0.0
18/04:00am 15.8 14.2 10.3 70 2.9 SW 9 15 5 8 1014.4 1014.4 0.0
18/03:30am 15.4 13.7 11.2 76 2.2 SSW 11 17 6 9 1014.5 1014.5 0.0
18/03:00am 15.2 12.1 10.2 72 2.6 SW 17 20 9 11 1014.7 1014.7 0.0
18/02:30am 15.7 12.8 10.9 73 2.6 SW 17 20 9 11 1014.7 1014.7 0.0
18/02:00am 16.3 13.8 11.2 72 2.7 SW 15 19 8 10 1014.7 1014.7 0.0
18/01:30am 16.6 13.3 10.9 69 3.0 SW 19 24 10 13 1014.6 1014.6 0.0

Other formats

Comma delimited format used in spreadsheet applications
http://www.bom.gov.au/fwo/IDV60801/IDV60801.94886.axf

JavaScript Object Notation format (JSON) in row-major order
http://www.bom.gov.au/fwo/IDV60801/IDV60801.94886.json

Data quality

Most of these data are generated automatically and are frequently updated. Quality checks on data are not normally performed. It is possible for incorrect values to appear. Refer to information at About Latest Weather Observations and please check the disclaimer before using these data.